Wednesday, December 19, 2018, 4:13 PM GMT
Back to Local

CWPK, Parent, Que.

Location: , , Canada Lat: 47.917
Local Time: 4:13 PM GMT (16:13 GMT) Lon: -74.617
Time Zone: GMT Elev: 1450 ft

Show me the last for .
Show Decoded

2018-12-19 15:00 METAR CWPK 191500Z AUTO 19001KT M11/M13 RMK AO1 SOG 28 3003 SLP151 T11131128 =
2018-12-19 14:00 METAR CWPK 191400Z AUTO 22003KT M12/M13 RMK AO1 SOG 27 2002 SLP149 T11171132 =
2018-12-19 13:00 METAR CWPK 191300Z AUTO 26002KT M13/M14 RMK AO1 SOG 27 6004 SLP148 T11271143 =
2018-12-19 12:00 METAR CWPK 191200Z AUTO 19002KT M13/M15 RMK AO1 SOG 27 5013 SLP148 T11291146 =
2018-12-19 11:00 METAR CWPK 191100Z AUTO 19003KT M15/M17 RMK AO1 SOG 27 8015 SLP149 T11521170 =
2018-12-19 10:00 METAR CWPK 191000Z AUTO 22002KT M15/M17 RMK AO1 SOG 27 8012 SLP153 T11491166 =
2018-12-19 09:00 METAR CWPK 190900Z AUTO 22001KT M15/M16 RMK AO1 SOG 27 8003 SLP163 T11471164 =
2018-12-19 08:00 METAR CWPK 190800Z AUTO 19001KT M13/M15 RMK AO1 SOG 27 0000 SLP163 T11251152 =
2018-12-19 07:00 METAR CWPK 190700Z AUTO 24004KT M12/M14 RMK AO1 SOG 27 6003 SLP164 T11201143 =
2018-12-19 06:00 METAR CWPK 190600Z AUTO 26002KT M12/M14 RMK AO1 SOG 27 5015 SLP164 T11241144 =
2018-12-19 05:00 METAR CWPK 190500Z AUTO 25002KT M12/M14 RMK AO1 SOG 27 8011 SLP162 T11241144 =
2018-12-19 04:00 METAR CWPK 190400Z AUTO 25003KT M13/M15 RMK AO1 SOG 27 8016 SLP167 T11251146 =
2018-12-19 03:00 METAR CWPK 190300Z AUTO 26005KT M12/M14 RMK AO1 SOG 27 5005 SLP180 T11221143 =
2018-12-19 02:00 METAR CWPK 190200Z AUTO 28003KT M12/M14 RMK AO1 SOG 27 8011 SLP174 T11231135 =
2018-12-19 01:00 METAR CWPK 190100Z AUTO 29007KT M12/M15 RMK AO1 SOG 28 7002 SLP185 T11211146 =
2018-12-19 00:00 METAR CWPK 190000Z AUTO 30006KT M12/M15 RMK AO1 SOG 28 0000 SLP186 T11201146 =
2018-12-18 23:00 METAR CWPK 182300Z AUTO 30006KT M11/M14 RMK AO1 SOG 28 0001 SLP186 T11141143 =
2018-12-18 22:00 METAR CWPK 182200Z AUTO 29005KT M11/M14 RMK AO1 SOG 28 1005 SLP186 T11101137 =
2018-12-18 21:00 METAR CWPK 182100Z AUTO 29007KT M11/M14 RMK AO1 SOG 28 1006 SLP185 T11071141 =
2018-12-18 20:00 METAR CWPK 182000Z AUTO 31006KT M10/M13 RMK AO1 SOG 28 1010 PK WND 30017/1925
                 SLP184 T11031134 =
2018-12-18 19:00 METAR CWPK 181900Z AUTO 31009G16KT M10/M14 RMK AO1 SOG 28 3008 SLP181 T11021137
                 =
2018-12-18 18:00 METAR CWPK 181800Z AUTO 30009G15KT M10/M14 RMK AO1 SOG 28 3005 PK WND 29018/1722
                 SLP179 T11031135 =
2018-12-18 17:00 METAR CWPK 181700Z AUTO 31009G19KT M10/M13 RMK AO1 SOG 28 1004 PK WND 30019/1657
                 SLP174 T11031134 =

Support USWX by starting your Amazon purchase here.